Time;durP1;ratioP1;P1;durP2;ratioP2;P2;SDS_P1;SDS_P2;PMS_P1;PMS_P2;Temp;Humidity;BMP_temperature;BMP_pressure;BME280_temperature;BME280_humidity;BME280_pressure;Samples;Min_cycle;Max_cycle;Signal;HPM_P1;HPM_P2
2022/06/17 00:01:56;;;;;;;;;;;;;;;14.80;76.09;100749.45;84747;1323;22732;-72
2022/06/17 00:03:59;;;;;;;;;;;;;;;14.73;76.25;100747.73;84767;1329;22608;-71
2022/06/17 00:06:03;;;;;;;;;;;;;;;14.66;76.42;100750.32;84745;1330;22665;-70
2022/06/17 00:08:08;;;;;;;;;;;;;;;14.60;76.55;100746.95;84761;1326;23793;-70
2022/06/17 00:10:19;;;;;;;;;;;;;;;14.54;76.67;100747.58;84784;1326;25983;-71
2022/06/17 00:12:22;;;;;;;;;;;;;;;14.50;76.86;100743.95;84778;1327;22570;-71
2022/06/17 00:14:29;;;;;;;;;;;;;;;14.45;76.88;100742.36;84765;1328;24802;-71
2022/06/17 00:16:32;;;;;;;;;;;;;;;14.41;76.66;100743.25;84752;1324;22564;-70
2022/06/17 00:18:36;;;;;;;;;;;;;;;14.37;76.60;100742.41;84726;1327;22705;-71
2022/06/17 00:20:39;;;;;;;;;;;;;;;14.33;76.60;100744.36;84771;1323;22884;-71
2022/06/17 00:22:43;;;;;;;;;;;;;;;14.29;76.59;100743.48;84730;1327;23918;-71
2022/06/17 00:24:47;;;;;;;;;;;;;;;14.25;76.66;100748.78;84793;1330;24099;-70
2022/06/17 00:26:50;;;;;;;;;;;;;;;14.21;76.80;100751.73;84751;1326;24273;-71
2022/06/17 00:28:54;;;;;;;;;;;;;;;14.18;76.62;100751.91;84741;1326;23287;-71
2022/06/17 00:30:57;;;;;;;;;;;;;;;14.13;76.56;100752.48;84764;1327;24206;-70
2022/06/17 00:33:02;;;;;;;;;;;;;;;14.07;76.50;100749.09;84724;1326;22663;-70
2022/06/17 00:35:06;;;;;;;;;;;;;;;14.04;76.56;100747.82;84685;1326;23977;-71
2022/06/17 00:37:11;;;;;;;;;;;;;;;13.98;76.47;100747.05;84714;1324;22743;-72
2022/06/17 00:39:17;;;;;;;;;;;;;;;13.93;76.77;100750.76;84694;1327;22685;-71
2022/06/17 00:41:23;;;;;;;;;;;;;;;13.89;76.61;100746.90;84713;1324;22903;-71
2022/06/17 00:43:28;;;;;;;;;;;;;;;13.85;76.55;100745.02;84662;1328;22631;-71
2022/06/17 00:45:33;;;;;;;;;;;;;;;13.81;76.53;100749.08;84735;1326;25308;-70
2022/06/17 00:47:37;;;;;;;;;;;;;;;13.73;76.47;100750.80;84705;1327;23920;-70
2022/06/17 00:49:44;;;;;;;;;;;;;;;13.66;76.67;100751.98;84730;1326;22584;-71
2022/06/17 00:51:55;;;;;;;;;;;;;;;13.60;76.88;100750.15;84717;1326;22584;-71
2022/06/17 00:54:01;;;;;;;;;;;;;;;13.53;76.94;100752.23;84678;1326;25423;-71
2022/06/17 00:56:08;;;;;;;;;;;;;;;13.46;77.09;100752.54;84710;1324;22594;-71
2022/06/17 00:58:15;;;;;;;;;;;;;;;13.41;77.07;100755.76;84798;1326;24212;-72
2022/06/17 01:00:20;;;;;;;;;;;;;;;13.34;77.19;100750.23;84694;1326;24108;-71
2022/06/17 01:02:24;;;;;;;;;;;;;;;13.28;77.03;100751.40;84725;1329;22665;-71
2022/06/17 01:04:28;;;;;;;;;;;;;;;13.22;77.17;100753.77;84778;1326;22665;-71
2022/06/17 01:06:34;;;;;;;;;;;;;;;13.13;77.27;100751.65;84703;1326;25424;-71
2022/06/17 01:11:01;;;;;;;;;;;;;;;12.97;77.54;100756.23;84699;1324;22566;-69
2022/06/17 01:13:05;;;;;;;;;;;;;;;12.89;77.61;100754.41;84711;1326;22583;-71
2022/06/17 01:15:11;;;;;;;;;;;;;;;12.82;77.69;100754.89;84700;1326;24273;-71
2022/06/17 01:17:16;;;;;;;;;;;;;;;12.76;77.80;100757.92;84683;1323;22658;-70
2022/06/17 01:19:24;;;;;;;;;;;;;;;12.72;77.80;100759.70;84689;1326;24099;-71
2022/06/17 01:21:30;;;;;;;;;;;;;;;12.68;77.96;100761.24;84727;1326;23040;-70
2022/06/17 01:23:33;;;;;;;;;;;;;;;12.64;78.06;100762.98;84748;1326;22588;-71
2022/06/17 01:25:38;;;;;;;;;;;;;;;12.60;78.13;100763.13;84759;1327;22589;-70
2022/06/17 01:27:43;;;;;;;;;;;;;;;12.56;78.20;100767.67;84759;1326;24262;-71
2022/06/17 01:29:46;;;;;;;;;;;;;;;12.52;78.27;100769.59;84790;1327;24445;-71
2022/06/17 01:31:52;;;;;;;;;;;;;;;12.48;78.33;100769.90;84766;1326;22667;-70
2022/06/17 01:33:55;;;;;;;;;;;;;;;12.46;78.33;100771.04;84774;1330;22868;-71
2022/06/17 01:36:00;;;;;;;;;;;;;;;12.44;78.41;100772.35;84743;1326;24356;-70
2022/06/17 01:38:03;;;;;;;;;;;;;;;12.42;78.49;100776.98;84751;1323;22697;-70
2022/06/17 01:40:09;;;;;;;;;;;;;;;12.39;78.70;100779.00;84766;1324;22672;-70
2022/06/17 01:42:12;;;;;;;;;;;;;;;12.36;78.74;100783.66;84767;1326;22983;-70
2022/06/17 01:44:17;;;;;;;;;;;;;;;12.34;78.63;100785.67;84755;1328;22589;-70
2022/06/17 01:46:21;;;;;;;;;;;;;;;12.31;78.57;100787.52;84863;1327;24265;-71
2022/06/17 01:48:27;;;;;;;;;;;;;;;12.25;78.66;100789.16;84821;1326;23019;-70
2022/06/17 01:50:31;;;;;;;;;;;;;;;12.21;78.69;100788.27;84765;1326;22677;-71
2022/06/17 01:52:36;;;;;;;;;;;;;;;12.19;78.73;100789.23;84735;1326;23933;-70
2022/06/17 01:54:44;;;;;;;;;;;;;;;12.14;78.56;100788.54;84743;1327;22577;-70
2022/06/17 01:56:47;;;;;;;;;;;;;;;12.08;78.72;100796.27;84749;1326;23015;-71
2022/06/17 01:58:53;;;;;;;;;;;;;;;12.01;78.52;100792.69;84731;1326;22593;-71
2022/06/17 02:00:57;;;;;;;;;;;;;;;11.94;78.49;100794.19;84740;1326;22603;-70
2022/06/17 02:03:02;;;;;;;;;;;;;;;11.86;78.49;100797.79;84725;1326;23797;-71
2022/06/17 02:05:07;;;;;;;;;;;;;;;11.78;78.55;100800.16;84751;1326;22540;-70
2022/06/17 02:07:14;;;;;;;;;;;;;;;11.71;78.61;100801.11;84754;1326;22596;-71
2022/06/17 02:09:17;;;;;;;;;;;;;;;11.62;78.81;100801.59;84728;1326;22596;-71
2022/06/17 02:11:20;;;;;;;;;;;;;;;11.56;78.86;100805.66;84762;1323;22660;-70
2022/06/17 02:13:24;;;;;;;;;;;;;;;11.48;79.03;100805.39;84736;1327;22566;-70
2022/06/17 02:15:27;;;;;;;;;;;;;;;11.42;79.17;100810.35;84742;1326;25488;-71
2022/06/17 02:17:32;;;;;;;;;;;;;;;11.35;79.28;100812.48;84735;1327;22582;-71
2022/06/17 02:19:37;;;;;;;;;;;;;;;11.31;79.51;100813.33;84753;1326;22659;-71
2022/06/17 02:21:42;;;;;;;;;;;;;;;11.28;79.69;100816.77;84733;1326;22621;-70
2022/06/17 02:23:45;;;;;;;;;;;;;;;11.26;79.83;100817.15;84754;1328;22570;-71
2022/06/17 02:25:49;;;;;;;;;;;;;;;11.26;80.10;100821.90;84735;1329;23982;-70
2022/06/17 02:27:54;;;;;;;;;;;;;;;11.24;80.06;100824.74;84743;1326;22772;-71
2022/06/17 02:29:57;;;;;;;;;;;;;;;11.23;80.00;100825.83;84753;1327;22594;-71
2022/06/17 02:32:02;;;;;;;;;;;;;;;11.20;80.16;100825.22;84725;1330;23908;-71
2022/06/17 02:34:05;;;;;;;;;;;;;;;11.19;80.11;100823.70;84718;1330;22563;-70
2022/06/17 02:36:11;;;;;;;;;;;;;;;11.20;80.42;100824.02;84741;1326;23346;-70
2022/06/17 02:38:16;;;;;;;;;;;;;;;11.20;80.24;100828.73;84711;1326;24222;-70
2022/06/17 02:40:24;;;;;;;;;;;;;;;11.17;79.98;100824.44;84733;1323;22573;-70
2022/06/17 02:42:32;;;;;;;;;;;;;;;11.15;80.30;100825.91;84744;1330;22584;-71
2022/06/17 02:44:38;;;;;;;;;;;;;;;11.15;80.30;100824.34;84835;1327;22608;-70
2022/06/17 02:46:41;;;;;;;;;;;;;;;11.15;80.28;100826.80;84719;1326;22593;-71
2022/06/17 02:48:47;;;;;;;;;;;;;;;11.14;80.33;100832.27;84715;1325;22577;-70
2022/06/17 02:50:50;;;;;;;;;;;;;;;11.15;80.49;100837.81;84748;1330;22591;-71
2022/06/17 02:52:54;;;;;;;;;;;;;;;11.14;80.50;100840.63;84710;1326;22778;-71
2022/06/17 02:54:58;;;;;;;;;;;;;;;11.12;80.53;100844.87;84720;1326;24370;-71
2022/06/17 02:57:02;;;;;;;;;;;;;;;11.10;80.65;100850.86;84727;1330;22571;-70
2022/06/17 02:59:09;;;;;;;;;;;;;;;11.09;80.62;100851.42;84720;1326;24087;-71
2022/06/17 03:01:17;;;;;;;;;;;;;;;11.08;80.86;100851.63;84710;1326;22574;-70
2022/06/17 03:03:21;;;;;;;;;;;;;;;11.09;81.10;100852.67;84743;1324;22560;-70
2022/06/17 03:05:26;;;;;;;;;;;;;;;11.11;81.15;100856.96;84736;1323;23012;-69
2022/06/17 03:07:30;;;;;;;;;;;;;;;11.13;81.38;100856.38;84716;1326;22587;-70
2022/06/17 03:09:36;;;;;;;;;;;;;;;11.15;81.28;100858.42;84805;1330;22604;-71
2022/06/17 03:11:39;;;;;;;;;;;;;;;11.16;81.32;100860.45;84782;1326;22602;-71
2022/06/17 03:13:44;;;;;;;;;;;;;;;11.19;81.34;100864.20;84723;1325;22739;-71
2022/06/17 03:15:48;;;;;;;;;;;;;;;11.22;81.66;100857.29;84746;1324;23009;-71
2022/06/17 03:17:52;;;;;;;;;;;;;;;11.25;81.66;100857.90;84776;1326;24095;-71
2022/06/17 03:19:56;;;;;;;;;;;;;;;11.29;81.65;100863.54;84736;1326;22698;-70
2022/06/17 03:21:59;;;;;;;;;;;;;;;11.32;81.71;100863.05;84745;1328;22563;-71
2022/06/17 03:24:05;;;;;;;;;;;;;;;11.37;81.52;100868.68;84714;1327;24334;-70
2022/06/17 03:26:10;;;;;;;;;;;;;;;11.43;81.75;100869.54;84729;1328;25935;-70
2022/06/17 03:28:16;;;;;;;;;;;;;;;11.53;81.70;100877.75;84731;1323;22645;-70
2022/06/17 03:30:23;;;;;;;;;;;;;;;11.87;82.01;100874.33;84753;1326;23889;-70
2022/06/17 03:32:33;;;;;;;;;;;;;;;12.58;82.63;100873.83;84714;1326;23908;-71
2022/06/17 03:34:42;;;;;;;;;;;;;;;13.52;82.83;100871.08;84751;1326;24096;-71
2022/06/17 03:36:56;;;;;;;;;;;;;;;14.52;80.87;100866.88;84764;1326;22604;-71
2022/06/17 03:39:06;;;;;;;;;;;;;;;15.39;78.08;100863.73;84781;1328;23955;-70
2022/06/17 03:41:12;;;;;;;;;;;;;;;16.17;76.59;100862.86;84715;1328;23024;-72
2022/06/17 03:43:22;;;;;;;;;;;;;;;16.97;74.68;100861.29;84775;1326;22599;-71
2022/06/17 03:45:36;;;;;;;;;;;;;;;17.78;72.22;100862.27;84756;1324;24399;-72
2022/06/17 03:47:42;;;;;;;;;;;;;;;18.55;69.87;100858.88;84797;1326;22749;-71
2022/06/17 03:49:55;;;;;;;;;;;;;;;19.29;67.54;100853.77;84753;1328;22575;-71
2022/06/17 03:52:02;;;;;;;;;;;;;;;19.99;65.01;100856.94;84788;1324;22531;-72
2022/06/17 03:54:11;;;;;;;;;;;;;;;20.66;62.82;100855.26;84772;1326;22710;-72
2022/06/17 03:56:16;;;;;;;;;;;;;;;21.34;60.42;100861.04;84761;1328;22585;-71
2022/06/17 03:58:25;;;;;;;;;;;;;;;21.94;58.17;100858.79;84488;1326;360272;-72
2022/06/17 04:00:33;;;;;;;;;;;;;;;22.42;55.19;100861.73;84759;1326;22741;-71
2022/06/17 04:02:39;;;;;;;;;;;;;;;22.87;53.23;100855.61;84800;1326;25427;-71
2022/06/17 04:04:47;;;;;;;;;;;;;;;23.38;51.21;100859.26;84711;1329;22590;-71
2022/06/17 04:06:55;;;;;;;;;;;;;;;23.81;49.13;100860.98;84784;1326;23931;-71
2022/06/17 04:09:02;;;;;;;;;;;;;;;24.22;48.26;100858.11;84779;1325;22656;-72
2022/06/17 04:11:15;;;;;;;;;;;;;;;24.56;46.48;100857.43;84786;1326;22634;-72
2022/06/17 04:13:22;;;;;;;;;;;;;;;24.95;45.37;100859.68;84767;1326;22624;-72
2022/06/17 04:15:42;;;;;;;;;;;;;;;25.44;44.39;100861.83;84762;1326;22593;-72
2022/06/17 04:17:48;;;;;;;;;;;;;;;25.88;42.66;100865.34;84772;1326;22632;-72
2022/06/17 04:19:54;;;;;;;;;;;;;;;26.18;41.92;100865.91;84714;1328;22607;-71
2022/06/17 04:22:21;;;;;;;;;;;;;;;26.53;41.19;100871.99;84774;1326;22569;-71
2022/06/17 04:24:25;;;;;;;;;;;;;;;27.04;39.82;100867.73;84763;1323;22592;-71
2022/06/17 04:26:34;;;;;;;;;;;;;;;27.48;39.21;100870.13;84754;1326;22581;-72
2022/06/17 04:28:43;;;;;;;;;;;;;;;27.78;38.60;100870.31;84730;1326;24280;-72
2022/06/17 04:30:48;;;;;;;;;;;;;;;28.03;37.31;100866.13;84776;1326;24412;-71
2022/06/17 04:32:57;;;;;;;;;;;;;;;28.24;37.48;100867.98;84760;1325;22611;-70
2022/06/17 04:35:00;;;;;;;;;;;;;;;28.45;36.84;100867.04;84783;1330;22582;-71
2022/06/17 04:37:06;;;;;;;;;;;;;;;28.63;36.31;100869.66;84788;1328;22590;-71
2022/06/17 04:39:22;;;;;;;;;;;;;;;28.81;36.10;100872.02;84732;1327;22588;-72
2022/06/17 04:41:33;;;;;;;;;;;;;;;28.83;35.63;100874.00;84713;1329;22610;-72
2022/06/17 04:43:40;;;;;;;;;;;;;;;28.37;35.98;100875.64;84802;1324;22573;-72
2022/06/17 04:45:53;;;;;;;;;;;;;;;27.80;35.34;100879.95;84717;1328;22767;-72
2022/06/17 04:47:59;;;;;;;;;;;;;;;27.73;36.59;100881.50;84777;1326;22611;-71
2022/06/17 04:50:05;;;;;;;;;;;;;;;27.97;37.35;100878.89;84766;1327;25353;-71
2022/06/17 04:52:20;;;;;;;;;;;;;;;28.32;36.06;100878.14;84812;1326;23299;-72
2022/06/17 04:54:26;;;;;;;;;;;;;;;28.62;35.14;100877.70;84785;1326;22645;-72
2022/06/17 04:56:31;;;;;;;;;;;;;;;29.06;35.20;100881.27;84788;1326;22591;-72
2022/06/17 04:58:35;;;;;;;;;;;;;;;29.40;33.79;100876.09;84713;1329;22587;-72
2022/06/17 05:00:45;;;;;;;;;;;;;;;29.71;33.87;100881.33;84749;1326;23825;-72
2022/06/17 05:02:52;;;;;;;;;;;;;;;30.01;33.23;100884.92;84817;1326;22717;-72
2022/06/17 05:04:59;;;;;;;;;;;;;;;30.39;31.96;100883.02;84794;1327;24178;-72
2022/06/17 05:07:08;;;;;;;;;;;;;;;30.73;31.09;100882.14;84688;1329;22583;-72
2022/06/17 05:09:19;;;;;;;;;;;;;;;31.04;31.95;100876.11;84818;1328;22632;-72
2022/06/17 05:11:29;;;;;;;;;;;;;;;31.41;30.40;100875.88;84697;1328;23854;-72
2022/06/17 05:13:33;;;;;;;;;;;;;;;31.62;30.81;100873.70;84749;1327;23933;-72
2022/06/17 05:15:37;;;;;;;;;;;;;;;31.83;29.87;100873.22;84809;1326;25974;-71
2022/06/17 05:17:44;;;;;;;;;;;;;;;32.01;29.09;100875.88;84788;1326;22681;-71
2022/06/17 05:19:49;;;;;;;;;;;;;;;31.93;28.70;100874.14;84725;1326;22621;-71
2022/06/17 05:21:53;;;;;;;;;;;;;;;32.03;28.95;100875.07;84770;1326;22565;-71
2022/06/17 05:24:05;;;;;;;;;;;;;;;32.14;28.22;100875.05;84770;1327;24078;-71
2022/06/17 05:26:16;;;;;;;;;;;;;;;32.11;28.09;100876.34;84771;1326;24374;-72
2022/06/17 05:28:21;;;;;;;;;;;;;;;32.31;28.27;100878.17;84775;1326;24240;-71
2022/06/17 05:30:25;;;;;;;;;;;;;;;32.58;27.92;100878.45;84740;1326;22577;-71
2022/06/17 05:32:37;;;;;;;;;;;;;;;32.72;27.69;100883.26;84758;1326;24220;-72
2022/06/17 05:34:44;;;;;;;;;;;;;;;32.67;27.43;100885.66;84778;1326;22693;-72
2022/06/17 05:36:52;;;;;;;;;;;;;;;32.60;27.12;100884.91;84770;1326;22596;-72
2022/06/17 05:38:58;;;;;;;;;;;;;;;32.70;27.59;100885.55;84753;1326;22578;-72
2022/06/17 05:41:14;;;;;;;;;;;;;;;32.79;27.63;100887.05;84760;1326;23935;-72
2022/06/17 05:43:26;;;;;;;;;;;;;;;32.99;27.91;100890.99;84777;1326;22601;-72
2022/06/17 05:45:31;;;;;;;;;;;;;;;33.23;27.78;100888.66;84810;1326;22578;-72
2022/06/17 05:47:35;;;;;;;;;;;;;;;33.31;27.04;100890.00;84813;1326;23964;-72
2022/06/17 05:49:44;;;;;;;;;;;;;;;33.44;27.04;100890.73;84816;1324;22765;-72
2022/06/17 05:51:50;;;;;;;;;;;;;;;33.58;26.34;100894.86;84659;1329;22607;-72
2022/06/17 05:54:01;;;;;;;;;;;;;;;33.33;26.56;100894.56;84779;1326;23936;-72
2022/06/17 05:56:10;;;;;;;;;;;;;;;33.44;27.79;100893.01;84778;1327;24268;-71
2022/06/17 05:58:14;;;;;;;;;;;;;;;33.84;26.68;100895.64;84732;1329;24544;-71
2022/06/17 06:00:28;;;;;;;;;;;;;;;34.06;26.70;100896.52;84783;1326;22524;-71
2022/06/17 06:02:35;;;;;;;;;;;;;;;34.25;25.93;100900.40;84793;1325;22557;-71
2022/06/17 06:04:41;;;;;;;;;;;;;;;34.28;25.77;100901.33;84761;1326;22603;-72
2022/06/17 06:06:48;;;;;;;;;;;;;;;34.30;25.88;100902.17;84771;1326;25461;-71
2022/06/17 06:08:52;;;;;;;;;;;;;;;34.42;26.14;100904.59;84737;1326;22726;-71
2022/06/17 06:11:02;;;;;;;;;;;;;;;34.54;24.77;100902.42;84777;1326;24699;-71
2022/06/17 06:13:12;;;;;;;;;;;;;;;34.48;24.88;100899.16;84766;1326;23957;-71
2022/06/17 06:15:19;;;;;;;;;;;;;;;34.48;25.07;100897.54;84773;1326;22559;-71
2022/06/17 06:17:36;;;;;;;;;;;;;;;34.58;25.19;100896.70;84772;1327;23938;-72
2022/06/17 06:19:40;;;;;;;;;;;;;;;34.66;24.49;100897.70;84817;1327;22660;-73
2022/06/17 06:21:44;;;;;;;;;;;;;;;34.62;24.99;100897.72;84813;1324;22578;-72
2022/06/17 06:23:56;;;;;;;;;;;;;;;34.69;25.02;100895.98;84808;1326;25414;-73
2022/06/17 06:26:01;;;;;;;;;;;;;;;34.84;24.76;100895.66;84802;1326;24375;-73
2022/06/17 06:28:11;;;;;;;;;;;;;;;35.12;24.90;100896.08;84809;1326;22883;-72
2022/06/17 06:30:26;;;;;;;;;;;;;;;35.29;24.74;100890.29;84806;1326;23966;-72
2022/06/17 06:32:30;;;;;;;;;;;;;;;35.42;24.27;100889.80;84816;1326;22609;-72
2022/06/17 06:34:36;;;;;;;;;;;;;;;35.46;24.00;100892.05;84795;1326;22579;-72
2022/06/17 06:36:40;;;;;;;;;;;;;;;35.47;23.92;100887.82;84857;1329;22584;-73
2022/06/17 06:38:44;;;;;;;;;;;;;;;35.64;23.41;100893.14;84808;1327;24344;-72
2022/06/17 06:40:48;;;;;;;;;;;;;;;35.60;22.79;100892.42;84807;1326;23849;-73
2022/06/17 06:42:54;;;;;;;;;;;;;;;35.60;22.69;100890.96;84814;1326;22720;-72
2022/06/17 06:45:01;;;;;;;;;;;;;;;35.85;23.49;100887.17;84772;1326;24211;-72
2022/06/17 06:47:09;;;;;;;;;;;;;;;35.85;22.86;100889.22;84822;1325;22556;-72
2022/06/17 06:49:12;;;;;;;;;;;;;;;35.27;23.09;100899.21;84769;1326;22525;-72
2022/06/17 06:51:16;;;;;;;;;;;;;;;34.99;22.39;100898.98;84792;1326;22618;-72
2022/06/17 06:53:19;;;;;;;;;;;;;;;34.88;22.71;100900.36;84807;1326;23927;-72
2022/06/17 06:55:23;;;;;;;;;;;;;;;34.55;22.91;100901.89;84780;1326;22592;-72
2022/06/17 06:57:28;;;;;;;;;;;;;;;34.45;23.31;100901.05;84786;1326;22651;-72
2022/06/17 06:59:40;;;;;;;;;;;;;;;34.53;23.07;100900.53;84764;1325;22726;-72
2022/06/17 07:01:47;;;;;;;;;;;;;;;34.54;23.61;100899.77;84793;1326;24247;-72
2022/06/17 07:03:54;;;;;;;;;;;;;;;34.77;23.51;100895.80;84787;1326;22735;-72
2022/06/17 07:05:59;;;;;;;;;;;;;;;35.15;22.98;100895.63;84849;1327;22668;-73
2022/06/17 07:08:08;;;;;;;;;;;;;;;35.39;23.35;100896.45;84857;1327;22717;-73
2022/06/17 07:10:14;;;;;;;;;;;;;;;35.45;22.36;100890.45;84827;1330;23808;-73
2022/06/17 07:12:18;;;;;;;;;;;;;;;35.11;22.76;100890.77;84747;1327;22597;-72
2022/06/17 07:14:28;;;;;;;;;;;;;;;35.22;23.25;100886.34;84796;1326;23895;-72
2022/06/17 07:16:33;;;;;;;;;;;;;;;35.43;23.28;100891.70;84800;1328;22882;-72
2022/06/17 07:18:37;;;;;;;;;;;;;;;35.79;23.40;100887.31;84778;1326;24246;-72
2022/06/17 07:20:44;;;;;;;;;;;;;;;35.80;22.25;100886.98;84788;1326;22613;-72
2022/06/17 07:22:48;;;;;;;;;;;;;;;35.27;22.76;100893.55;84813;1326;22832;-72
2022/06/17 07:24:52;;;;;;;;;;;;;;;35.18;22.27;100898.53;84796;1327;22573;-73
2022/06/17 07:26:57;;;;;;;;;;;;;;;35.12;22.46;100900.73;84787;1328;22625;-73
2022/06/17 07:29:00;;;;;;;;;;;;;;;35.31;21.92;100898.45;84773;1326;22625;-73
2022/06/17 07:31:03;;;;;;;;;;;;;;;35.42;22.47;100902.38;84794;1324;22845;-73
2022/06/17 07:33:07;;;;;;;;;;;;;;;35.82;22.47;100902.92;84789;1325;24052;-73
2022/06/17 07:35:10;;;;;;;;;;;;;;;36.18;22.33;100898.60;84825;1327;22848;-73
2022/06/17 07:39:54;;;;;;;;;;;;;;;36.60;20.97;100898.79;84775;1326;22589;-73
2022/06/17 07:41:57;;;;;;;;;;;;;;;36.72;21.07;100895.50;84777;1328;22627;-73
2022/06/17 07:44:01;;;;;;;;;;;;;;;36.85;21.57;100894.39;84800;1330;23986;-72
2022/06/17 07:46:05;;;;;;;;;;;;;;;37.07;20.98;100897.34;84792;1326;22964;-72
2022/06/17 07:48:11;;;;;;;;;;;;;;;36.68;20.33;100903.73;84783;1326;23931;-72
2022/06/17 07:50:17;;;;;;;;;;;;;;;36.06;21.27;100900.95;84773;1326;25943;-72
2022/06/17 07:52:20;;;;;;;;;;;;;;;35.88;21.38;100898.85;84801;1326;22896;-72
2022/06/17 07:54:23;;;;;;;;;;;;;;;35.96;22.13;100901.58;84792;1326;22606;-72
2022/06/17 07:56:27;;;;;;;;;;;;;;;36.35;21.45;100899.83;84772;1326;25302;-71
2022/06/17 07:58:30;;;;;;;;;;;;;;;36.52;21.14;100904.06;84769;1326;25523;-71
2022/06/17 08:00:35;;;;;;;;;;;;;;;36.75;21.01;100905.02;84781;1327;23851;-72
2022/06/17 08:02:39;;;;;;;;;;;;;;;36.97;20.64;100903.48;84811;1327;22594;-72
2022/06/17 08:04:42;;;;;;;;;;;;;;;36.98;20.20;100904.53;84774;1326;25436;-71
2022/06/17 08:06:49;;;;;;;;;;;;;;;36.94;20.14;100902.88;84777;1327;22568;-72
2022/06/17 08:08:53;;;;;;;;;;;;;;;37.00;20.15;100900.86;84800;1328;22603;-72
2022/06/17 08:10:57;;;;;;;;;;;;;;;37.18;20.75;100902.39;84745;1327;22768;-72
2022/06/17 08:13:00;;;;;;;;;;;;;;;37.45;20.52;100905.36;84800;1326;22574;-72
2022/06/17 08:15:06;;;;;;;;;;;;;;;37.59;19.69;100906.55;84799;1326;25495;-72
2022/06/17 08:17:09;;;;;;;;;;;;;;;37.07;19.12;100909.00;84784;1326;22628;-72
2022/06/17 08:19:12;;;;;;;;;;;;;;;36.34;19.78;100908.64;84777;1328;22568;-72
2022/06/17 08:21:16;;;;;;;;;;;;;;;36.18;21.19;100904.90;84772;1326;22614;-72
2022/06/17 08:23:20;;;;;;;;;;;;;;;36.21;20.38;100904.80;84788;1327;22568;-72
2022/06/17 08:25:24;;;;;;;;;;;;;;;35.33;21.12;100909.59;84812;1328;22643;-72
2022/06/17 08:27:27;;;;;;;;;;;;;;;34.15;22.14;100913.45;84767;1326;22590;-71
2022/06/17 08:29:30;;;;;;;;;;;;;;;33.08;23.62;100908.57;84779;1326;23902;-71
2022/06/17 08:31:34;;;;;;;;;;;;;;;32.27;24.43;100907.20;84802;1330;25467;-71
2022/06/17 08:33:37;;;;;;;;;;;;;;;31.88;25.31;100910.24;84759;1330;22534;-71
2022/06/17 08:35:42;;;;;;;;;;;;;;;31.78;25.27;100910.73;84781;1326;22981;-71
2022/06/17 08:37:45;;;;;;;;;;;;;;;31.93;25.89;100913.81;84811;1330;23825;-71
2022/06/17 08:39:49;;;;;;;;;;;;;;;32.52;25.16;100914.13;84778;1326;22675;-71
2022/06/17 08:41:54;;;;;;;;;;;;;;;33.10;24.69;100912.09;84770;1327;22577;-71
2022/06/17 08:44:28;;;;;;;;;;;;;;;33.69;23.96;100917.30;84750;1329;22887;-70
2022/06/17 08:46:39;;;;;;;;;;;;;;;34.64;23.85;100912.30;84791;1327;24228;-72
2022/06/17 08:48:51;;;;;;;;;;;;;;;35.11;22.82;100916.30;84774;1326;22571;-72
2022/06/17 08:51:04;;;;;;;;;;;;;;;34.43;22.69;100914.83;84795;1330;22947;-72
2022/06/17 08:53:18;;;;;;;;;;;;;;;33.48;23.48;100913.02;84778;1326;22588;-71
2022/06/17 08:55:24;;;;;;;;;;;;;;;32.52;24.40;100915.58;84831;1327;22615;-72
2022/06/17 08:57:29;;;;;;;;;;;;;;;31.72;25.77;100915.66;84818;1326;23037;-72
2022/06/17 08:59:44;;;;;;;;;;;;;;;31.86;26.46;100918.47;84775;1326;22755;-70
2022/06/17 09:01:56;;;;;;;;;;;;;;;32.42;25.35;100917.58;84781;1326;23017;-70
2022/06/17 09:04:07;;;;;;;;;;;;;;;33.07;25.89;100919.40;84769;1327;22667;-71
2022/06/17 09:06:16;;;;;;;;;;;;;;;33.81;25.67;100922.77;84758;1327;23820;-71
2022/06/17 09:08:26;;;;;;;;;;;;;;;34.44;25.69;100927.76;84784;1326;22586;-70
2022/06/17 09:10:35;;;;;;;;;;;;;;;34.73;24.57;100927.02;84791;1327;22947;-70
2022/06/17 09:12:45;;;;;;;;;;;;;;;34.12;23.20;100924.54;84795;1330;22691;-70
2022/06/17 09:14:52;;;;;;;;;;;;;;;32.86;24.18;100934.45;84825;1326;22747;-71
2022/06/17 09:17:01;;;;;;;;;;;;;;;31.80;24.80;100937.40;84759;1326;25279;-70
2022/06/17 09:19:05;;;;;;;;;;;;;;;31.19;26.29;100944.27;84755;1328;22528;-71
2022/06/17 09:21:09;;;;;;;;;;;;;;;30.96;26.69;100940.45;84753;1326;22984;-71
2022/06/17 09:23:15;;;;;;;;;;;;;;;30.70;26.88;100943.64;84797;1326;22596;-71
2022/06/17 09:25:23;;;;;;;;;;;;;;;30.23;27.66;100944.58;84782;1326;22765;-71
2022/06/17 09:27:28;;;;;;;;;;;;;;;29.75;28.57;100949.54;84769;1327;22589;-72
2022/06/17 09:29:35;;;;;;;;;;;;;;;29.26;28.86;100946.60;84773;1327;22597;-71
2022/06/17 09:31:40;;;;;;;;;;;;;;;28.88;29.21;100949.64;84735;1326;23263;-70
2022/06/17 09:33:46;;;;;;;;;;;;;;;29.00;30.58;100953.91;84754;1326;22580;-71
2022/06/17 09:35:52;;;;;;;;;;;;;;;29.26;30.60;100947.84;84757;1327;23760;-71
2022/06/17 09:37:57;;;;;;;;;;;;;;;29.20;29.81;100950.73;84776;1326;22672;-71
2022/06/17 09:40:02;;;;;;;;;;;;;;;28.94;30.15;100962.06;84768;1330;24214;-72
2022/06/17 09:42:08;;;;;;;;;;;;;;;28.66;30.58;100960.15;84790;1328;22644;-72
2022/06/17 09:44:14;;;;;;;;;;;;;;;28.51;30.60;100956.21;84800;1326;23825;-71
2022/06/17 09:46:20;;;;;;;;;;;;;;;28.58;31.23;100953.09;84830;1328;23922;-71
2022/06/17 09:48:26;;;;;;;;;;;;;;;28.74;31.33;100955.04;84818;1326;24320;-71
2022/06/17 09:50:32;;;;;;;;;;;;;;;28.58;30.93;100958.70;84859;1327;22703;-72
2022/06/17 09:52:38;;;;;;;;;;;;;;;28.11;31.42;100967.27;84840;1326;22576;-72
2022/06/17 09:54:43;;;;;;;;;;;;;;;27.77;31.37;100968.07;84876;1326;22739;-70
2022/06/17 09:56:49;;;;;;;;;;;;;;;27.82;32.12;100965.85;84828;1327;24766;-71
2022/06/17 09:58:55;;;;;;;;;;;;;;;27.99;32.10;100964.80;84851;1326;22692;-71
2022/06/17 10:00:59;;;;;;;;;;;;;;;28.15;31.69;100960.95;84860;1327;22583;-70
2022/06/17 10:03:14;;;;;;;;;;;;;;;28.22;31.94;100964.42;84826;1329;24349;-70
2022/06/17 10:05:26;;;;;;;;;;;;;;;28.44;32.26;100960.35;84820;1329;24355;-71
2022/06/17 10:07:32;;;;;;;;;;;;;;;28.68;32.01;100961.24;84788;1330;22616;-71
2022/06/17 10:09:43;;;;;;;;;;;;;;;28.57;31.33;100965.94;84808;1326;22562;-71
2022/06/17 10:11:49;;;;;;;;;;;;;;;28.52;31.23;100966.52;84803;1328;22601;-71
2022/06/17 10:13:58;;;;;;;;;;;;;;;28.43;30.85;100961.55;84817;1327;22899;-71
2022/06/17 10:18:33;;;;;;;;;;;;;;;28.60;32.77;100961.20;84815;1326;23953;-72
2022/06/17 10:20:38;;;;;;;;;;;;;;;28.96;31.98;100960.40;84835;1329;22634;-72
2022/06/17 10:22:48;;;;;;;;;;;;;;;29.06;30.98;100961.11;84810;1330;22768;-71
2022/06/17 10:24:58;;;;;;;;;;;;;;;29.04;30.99;100960.27;84801;1329;22594;-70
2022/06/17 10:27:08;;;;;;;;;;;;;;;29.24;30.90;100958.48;84841;1326;25416;-71
2022/06/17 10:29:22;;;;;;;;;;;;;;;29.54;30.98;100954.36;84848;1326;22600;-72
2022/06/17 10:31:30;;;;;;;;;;;;;;;29.89;31.28;100956.45;84878;1326;23866;-72
2022/06/17 10:33:35;;;;;;;;;;;;;;;30.19;30.72;100953.97;84803;1330;22989;-72
2022/06/17 10:35:38;;;;;;;;;;;;;;;30.24;30.20;100955.28;84858;1326;22583;-72
2022/06/17 10:37:42;;;;;;;;;;;;;;;29.98;29.44;100952.96;84783;1327;22668;-71
2022/06/17 10:39:45;;;;;;;;;;;;;;;29.54;30.03;100957.42;84819;1326;22718;-71
2022/06/17 10:41:48;;;;;;;;;;;;;;;29.05;30.14;100961.83;84820;1327;22560;-71
2022/06/17 10:43:52;;;;;;;;;;;;;;;28.47;30.23;100963.80;84968;1326;22579;-76
2022/06/17 10:45:56;;;;;;;;;;;;;;;28.01;31.25;100965.42;84951;1330;24430;-76
2022/06/17 10:48:02;;;;;;;;;;;;;;;27.60;31.67;100963.91;85009;1326;23580;-76
2022/06/17 10:50:10;;;;;;;;;;;;;;;27.31;32.37;100962.73;84919;1329;22643;-76
2022/06/17 10:52:16;;;;;;;;;;;;;;;27.02;32.35;100964.98;84969;1327;22775;-76
2022/06/17 10:54:22;;;;;;;;;;;;;;;26.87;33.23;100967.85;84968;1327;24214;-74
2022/06/17 10:56:28;;;;;;;;;;;;;;;26.74;33.93;100970.17;84949;1326;25281;-75